sensor_id;sensor_type;location;lat;lon;timestamp;P1;durP1;ratioP1;P2;durP2;ratioP2
41897;SDS011;27576;53.366;-1.498;2023-08-31T00:02:09;4.50;;;2.00;;
41897;SDS011;27576;53.366;-1.498;2023-08-31T00:04:34;6.30;;;2.00;;
41897;SDS011;27576;53.366;-1.498;2023-08-31T00:07:00;3.92;;;2.15;;
41897;SDS011;27576;53.366;-1.498;2023-08-31T00:09:25;5.72;;;2.05;;
41897;SDS011;27576;53.366;-1.498;2023-08-31T00:11:51;5.22;;;1.98;;
41897;SDS011;27576;53.366;-1.498;2023-08-31T00:14:16;3.55;;;2.10;;
41897;SDS011;27576;53.366;-1.498;2023-08-31T00:16:42;3.97;;;1.90;;
41897;SDS011;27576;53.366;-1.498;2023-08-31T00:19:10;6.32;;;2.35;;
41897;SDS011;27576;53.366;-1.498;2023-08-31T00:21:36;7.10;;;2.42;;
41897;SDS011;27576;53.366;-1.498;2023-08-31T00:24:01;3.78;;;2.33;;
41897;SDS011;27576;53.366;-1.498;2023-08-31T00:26:27;6.43;;;2.58;;
41897;SDS011;27576;53.366;-1.498;2023-08-31T00:28:54;4.70;;;2.15;;
41897;SDS011;27576;53.366;-1.498;2023-08-31T00:31:19;7.50;;;2.40;;
41897;SDS011;27576;53.366;-1.498;2023-08-31T00:33:44;6.43;;;2.13;;
41897;SDS011;27576;53.366;-1.498;2023-08-31T00:36:11;4.85;;;2.53;;
41897;SDS011;27576;53.366;-1.498;2023-08-31T00:38:36;10.60;;;2.85;;
41897;SDS011;27576;53.366;-1.498;2023-08-31T00:41:01;10.05;;;3.25;;
41897;SDS011;27576;53.366;-1.498;2023-08-31T00:43:27;7.43;;;2.60;;
41897;SDS011;27576;53.366;-1.498;2023-08-31T00:45:54;7.03;;;2.50;;
41897;SDS011;27576;53.366;-1.498;2023-08-31T00:48:23;3.80;;;2.20;;
41897;SDS011;27576;53.366;-1.498;2023-08-31T00:50:49;8.70;;;2.50;;
41897;SDS011;27576;53.366;-1.498;2023-08-31T00:53:15;5.85;;;2.78;;
41897;SDS011;27576;53.366;-1.498;2023-08-31T00:55:41;6.53;;;2.30;;
41897;SDS011;27576;53.366;-1.498;2023-08-31T00:58:09;7.47;;;2.25;;
41897;SDS011;27576;53.366;-1.498;2023-08-31T01:00:50;3.70;;;2.53;;
41897;SDS011;27576;53.366;-1.498;2023-08-31T01:03:53;11.23;;;2.90;;
41897;SDS011;27576;53.366;-1.498;2023-08-31T01:06:47;4.97;;;2.67;;
41897;SDS011;27576;53.366;-1.498;2023-08-31T01:12:33;6.15;;;2.33;;
41897;SDS011;27576;53.366;-1.498;2023-08-31T01:15:05;7.00;;;2.40;;
41897;SDS011;27576;53.366;-1.498;2023-08-31T01:17:46;6.10;;;2.53;;
41897;SDS011;27576;53.366;-1.498;2023-08-31T01:20:17;4.63;;;2.28;;
41897;SDS011;27576;53.366;-1.498;2023-08-31T01:22:51;4.82;;;2.17;;
41897;SDS011;27576;53.366;-1.498;2023-08-31T01:25:25;6.82;;;2.42;;
41897;SDS011;27576;53.366;-1.498;2023-08-31T01:27:51;4.50;;;2.08;;
41897;SDS011;27576;53.366;-1.498;2023-08-31T01:30:17;4.97;;;2.55;;
41897;SDS011;27576;53.366;-1.498;2023-08-31T01:32:45;6.38;;;2.85;;
41897;SDS011;27576;53.366;-1.498;2023-08-31T01:35:11;4.65;;;2.30;;
41897;SDS011;27576;53.366;-1.498;2023-08-31T01:37:52;9.73;;;2.63;;
41897;SDS011;27576;53.366;-1.498;2023-08-31T01:43:07;8.90;;;2.28;;
41897;SDS011;27576;53.366;-1.498;2023-08-31T01:45:34;4.82;;;2.13;;
41897;SDS011;27576;53.366;-1.498;2023-08-31T01:48:00;5.03;;;2.40;;
41897;SDS011;27576;53.366;-1.498;2023-08-31T01:50:26;6.45;;;2.13;;
41897;SDS011;27576;53.366;-1.498;2023-08-31T01:52:51;8.10;;;2.50;;
41897;SDS011;27576;53.366;-1.498;2023-08-31T01:55:20;6.13;;;2.20;;
41897;SDS011;27576;53.366;-1.498;2023-08-31T01:57:47;7.38;;;2.20;;
41897;SDS011;27576;53.366;-1.498;2023-08-31T02:00:13;8.27;;;2.70;;
41897;SDS011;27576;53.366;-1.498;2023-08-31T02:02:39;8.02;;;2.25;;
41897;SDS011;27576;53.366;-1.498;2023-08-31T02:05:04;5.22;;;2.42;;
41897;SDS011;27576;53.366;-1.498;2023-08-31T02:07:30;6.13;;;2.38;;
41897;SDS011;27576;53.366;-1.498;2023-08-31T02:09:56;4.07;;;2.15;;
41897;SDS011;27576;53.366;-1.498;2023-08-31T02:12:21;5.10;;;2.22;;
41897;SDS011;27576;53.366;-1.498;2023-08-31T02:14:47;7.32;;;2.40;;
41897;SDS011;27576;53.366;-1.498;2023-08-31T02:17:12;5.75;;;2.35;;
41897;SDS011;27576;53.366;-1.498;2023-08-31T02:19:38;3.63;;;2.03;;
41897;SDS011;27576;53.366;-1.498;2023-08-31T02:22:03;4.57;;;2.13;;
41897;SDS011;27576;53.366;-1.498;2023-08-31T02:24:28;4.63;;;2.40;;
41897;SDS011;27576;53.366;-1.498;2023-08-31T02:26:54;8.05;;;2.78;;
41897;SDS011;27576;53.366;-1.498;2023-08-31T02:29:19;3.88;;;2.35;;
41897;SDS011;27576;53.366;-1.498;2023-08-31T02:31:44;7.38;;;2.45;;
41897;SDS011;27576;53.366;-1.498;2023-08-31T02:34:10;5.13;;;2.35;;
41897;SDS011;27576;53.366;-1.498;2023-08-31T02:36:35;3.53;;;1.67;;
41897;SDS011;27576;53.366;-1.498;2023-08-31T02:39:01;5.22;;;2.30;;
41897;SDS011;27576;53.366;-1.498;2023-08-31T02:41:28;3.22;;;1.92;;
41897;SDS011;27576;53.366;-1.498;2023-08-31T02:43:54;7.97;;;2.40;;
41897;SDS011;27576;53.366;-1.498;2023-08-31T02:46:19;6.47;;;2.38;;
41897;SDS011;27576;53.366;-1.498;2023-08-31T02:48:45;4.78;;;2.00;;
41897;SDS011;27576;53.366;-1.498;2023-08-31T02:51:11;4.43;;;2.15;;
41897;SDS011;27576;53.366;-1.498;2023-08-31T02:53:36;4.07;;;2.15;;
41897;SDS011;27576;53.366;-1.498;2023-08-31T02:56:02;5.43;;;2.25;;
41897;SDS011;27576;53.366;-1.498;2023-08-31T02:58:27;4.10;;;1.92;;
41897;SDS011;27576;53.366;-1.498;2023-08-31T03:00:53;3.47;;;1.92;;
41897;SDS011;27576;53.366;-1.498;2023-08-31T03:03:18;4.43;;;1.90;;
41897;SDS011;27576;53.366;-1.498;2023-08-31T03:05:44;5.70;;;2.08;;
41897;SDS011;27576;53.366;-1.498;2023-08-31T03:08:10;3.97;;;1.83;;
41897;SDS011;27576;53.366;-1.498;2023-08-31T03:10:36;6.68;;;2.10;;
41897;SDS011;27576;53.366;-1.498;2023-08-31T03:13:03;4.18;;;1.80;;
41897;SDS011;27576;53.366;-1.498;2023-08-31T03:15:28;3.22;;;1.80;;
41897;SDS011;27576;53.366;-1.498;2023-08-31T03:17:54;4.93;;;2.03;;
41897;SDS011;27576;53.366;-1.498;2023-08-31T03:20:19;4.03;;;2.10;;
41897;SDS011;27576;53.366;-1.498;2023-08-31T03:22:45;7.03;;;2.40;;
41897;SDS011;27576;53.366;-1.498;2023-08-31T03:25:10;3.53;;;1.85;;
41897;SDS011;27576;53.366;-1.498;2023-08-31T03:27:36;4.47;;;1.88;;
41897;SDS011;27576;53.366;-1.498;2023-08-31T03:30:01;5.85;;;2.10;;
41897;SDS011;27576;53.366;-1.498;2023-08-31T03:32:28;3.88;;;1.92;;
41897;SDS011;27576;53.366;-1.498;2023-08-31T03:34:53;6.28;;;2.08;;
41897;SDS011;27576;53.366;-1.498;2023-08-31T03:37:18;3.08;;;2.05;;
41897;SDS011;27576;53.366;-1.498;2023-08-31T03:39:47;2.30;;;1.80;;
41897;SDS011;27576;53.366;-1.498;2023-08-31T03:42:12;3.25;;;1.88;;
41897;SDS011;27576;53.366;-1.498;2023-08-31T03:44:38;5.50;;;2.08;;
41897;SDS011;27576;53.366;-1.498;2023-08-31T03:47:03;4.55;;;2.17;;
41897;SDS011;27576;53.366;-1.498;2023-08-31T03:49:29;3.67;;;2.08;;
41897;SDS011;27576;53.366;-1.498;2023-08-31T03:51:55;5.05;;;1.92;;
41897;SDS011;27576;53.366;-1.498;2023-08-31T03:54:20;3.22;;;1.92;;
41897;SDS011;27576;53.366;-1.498;2023-08-31T03:56:45;4.35;;;2.00;;
41897;SDS011;27576;53.366;-1.498;2023-08-31T03:59:11;2.40;;;1.83;;
41897;SDS011;27576;53.366;-1.498;2023-08-31T04:01:37;3.72;;;1.80;;
41897;SDS011;27576;53.366;-1.498;2023-08-31T04:04:03;2.90;;;2.00;;
41897;SDS011;27576;53.366;-1.498;2023-08-31T04:06:29;3.38;;;2.10;;
41897;SDS011;27576;53.366;-1.498;2023-08-31T04:08:54;4.50;;;2.03;;
41897;SDS011;27576;53.366;-1.498;2023-08-31T04:11:20;3.70;;;2.10;;
41897;SDS011;27576;53.366;-1.498;2023-08-31T04:13:45;5.25;;;2.30;;
41897;SDS011;27576;53.366;-1.498;2023-08-31T04:16:11;6.38;;;2.28;;
41897;SDS011;27576;53.366;-1.498;2023-08-31T04:18:36;4.00;;;2.13;;
41897;SDS011;27576;53.366;-1.498;2023-08-31T04:21:01;3.03;;;1.60;;
41897;SDS011;27576;53.366;-1.498;2023-08-31T04:23:28;4.18;;;2.75;;
41897;SDS011;27576;53.366;-1.498;2023-08-31T04:25:54;2.53;;;1.85;;
41897;SDS011;27576;53.366;-1.498;2023-08-31T04:28:20;2.92;;;1.75;;
41897;SDS011;27576;53.366;-1.498;2023-08-31T04:30:45;7.53;;;2.20;;
41897;SDS011;27576;53.366;-1.498;2023-08-31T04:33:10;3.42;;;1.90;;
41897;SDS011;27576;53.366;-1.498;2023-08-31T04:35:36;3.80;;;2.00;;
41897;SDS011;27576;53.366;-1.498;2023-08-31T04:38:01;3.90;;;2.10;;
41897;SDS011;27576;53.366;-1.498;2023-08-31T04:40:27;3.30;;;2.00;;
41897;SDS011;27576;53.366;-1.498;2023-08-31T04:42:54;4.13;;;1.90;;
41897;SDS011;27576;53.366;-1.498;2023-08-31T04:45:19;4.63;;;2.08;;
41897;SDS011;27576;53.366;-1.498;2023-08-31T04:47:45;4.60;;;2.45;;
41897;SDS011;27576;53.366;-1.498;2023-08-31T04:50:10;6.35;;;1.95;;
41897;SDS011;27576;53.366;-1.498;2023-08-31T04:52:35;4.70;;;2.30;;
41897;SDS011;27576;53.366;-1.498;2023-08-31T04:55:01;4.78;;;1.88;;
41897;SDS011;27576;53.366;-1.498;2023-08-31T04:57:28;4.15;;;2.08;;
41897;SDS011;27576;53.366;-1.498;2023-08-31T04:59:54;5.78;;;2.15;;
41897;SDS011;27576;53.366;-1.498;2023-08-31T05:02:19;4.88;;;2.40;;
41897;SDS011;27576;53.366;-1.498;2023-08-31T05:04:44;4.55;;;2.08;;
41897;SDS011;27576;53.366;-1.498;2023-08-31T05:07:10;4.35;;;2.15;;
41897;SDS011;27576;53.366;-1.498;2023-08-31T05:09:35;4.03;;;2.08;;
41897;SDS011;27576;53.366;-1.498;2023-08-31T05:12:01;2.42;;;1.58;;
41897;SDS011;27576;53.366;-1.498;2023-08-31T05:14:28;2.45;;;1.88;;
41897;SDS011;27576;53.366;-1.498;2023-08-31T05:16:53;4.90;;;2.00;;
41897;SDS011;27576;53.366;-1.498;2023-08-31T05:19:19;3.38;;;1.75;;
41897;SDS011;27576;53.366;-1.498;2023-08-31T05:21:44;2.33;;;2.10;;
41897;SDS011;27576;53.366;-1.498;2023-08-31T05:24:09;3.20;;;2.15;;
41897;SDS011;27576;53.366;-1.498;2023-08-31T05:26:35;4.60;;;2.20;;
41897;SDS011;27576;53.366;-1.498;2023-08-31T05:29:00;4.35;;;2.15;;
41897;SDS011;27576;53.366;-1.498;2023-08-31T05:31:25;2.67;;;1.60;;
41897;SDS011;27576;53.366;-1.498;2023-08-31T05:33:51;5.55;;;2.22;;
41897;SDS011;27576;53.366;-1.498;2023-08-31T05:36:17;3.30;;;2.10;;
41897;SDS011;27576;53.366;-1.498;2023-08-31T05:38:42;4.38;;;1.90;;
41897;SDS011;27576;53.366;-1.498;2023-08-31T05:41:08;3.20;;;1.90;;
41897;SDS011;27576;53.366;-1.498;2023-08-31T05:43:35;2.53;;;2.25;;
41897;SDS011;27576;53.366;-1.498;2023-08-31T05:46:01;2.45;;;1.80;;
41897;SDS011;27576;53.366;-1.498;2023-08-31T05:48:27;2.78;;;1.92;;
41897;SDS011;27576;53.366;-1.498;2023-08-31T05:50:53;3.47;;;1.95;;
41897;SDS011;27576;53.366;-1.498;2023-08-31T05:53:20;4.50;;;2.03;;
41897;SDS011;27576;53.366;-1.498;2023-08-31T05:55:45;3.30;;;2.20;;
41897;SDS011;27576;53.366;-1.498;2023-08-31T05:58:10;3.55;;;2.10;;
41897;SDS011;27576;53.366;-1.498;2023-08-31T06:00:36;4.00;;;2.00;;
41897;SDS011;27576;53.366;-1.498;2023-08-31T06:03:01;5.43;;;2.45;;
41897;SDS011;27576;53.366;-1.498;2023-08-31T06:05:29;4.43;;;1.95;;
41897;SDS011;27576;53.366;-1.498;2023-08-31T06:07:56;2.25;;;1.92;;
41897;SDS011;27576;53.366;-1.498;2023-08-31T06:10:22;3.75;;;1.90;;
41897;SDS011;27576;53.366;-1.498;2023-08-31T06:12:48;3.97;;;2.30;;
41897;SDS011;27576;53.366;-1.498;2023-08-31T06:15:14;6.05;;;2.58;;
41897;SDS011;27576;53.366;-1.498;2023-08-31T06:17:40;4.30;;;2.10;;
41897;SDS011;27576;53.366;-1.498;2023-08-31T06:20:06;3.35;;;2.10;;
41897;SDS011;27576;53.366;-1.498;2023-08-31T06:22:33;4.78;;;2.75;;
41897;SDS011;27576;53.366;-1.498;2023-08-31T06:24:58;4.25;;;2.70;;
41897;SDS011;27576;53.366;-1.498;2023-08-31T06:27:24;3.42;;;2.17;;
41897;SDS011;27576;53.366;-1.498;2023-08-31T06:29:50;6.63;;;2.30;;
41897;SDS011;27576;53.366;-1.498;2023-08-31T06:32:15;4.25;;;2.60;;
41897;SDS011;27576;53.366;-1.498;2023-08-31T06:34:41;4.25;;;2.70;;
41897;SDS011;27576;53.366;-1.498;2023-08-31T06:37:06;2.70;;;2.13;;
41897;SDS011;27576;53.366;-1.498;2023-08-31T06:39:32;3.38;;;2.58;;
41897;SDS011;27576;53.366;-1.498;2023-08-31T06:41:58;5.63;;;2.30;;
41897;SDS011;27576;53.366;-1.498;2023-08-31T06:44:23;4.70;;;2.65;;
41897;SDS011;27576;53.366;-1.498;2023-08-31T06:46:49;3.97;;;2.45;;
41897;SDS011;27576;53.366;-1.498;2023-08-31T06:49:14;3.13;;;2.00;;
41897;SDS011;27576;53.366;-1.498;2023-08-31T06:51:40;3.75;;;2.05;;
41897;SDS011;27576;53.366;-1.498;2023-08-31T06:54:05;2.78;;;2.15;;
41897;SDS011;27576;53.366;-1.498;2023-08-31T06:56:34;2.42;;;2.10;;
41897;SDS011;27576;53.366;-1.498;2023-08-31T06:59:01;4.82;;;2.45;;
41897;SDS011;27576;53.366;-1.498;2023-08-31T07:01:27;5.50;;;2.28;;
41897;SDS011;27576;53.366;-1.498;2023-08-31T07:03:54;3.42;;;2.00;;
41897;SDS011;27576;53.366;-1.498;2023-08-31T07:06:20;3.80;;;2.28;;
41897;SDS011;27576;53.366;-1.498;2023-08-31T07:08:45;3.78;;;2.40;;
41897;SDS011;27576;53.366;-1.498;2023-08-31T07:11:12;4.47;;;1.80;;
41897;SDS011;27576;53.366;-1.498;2023-08-31T07:13:37;3.85;;;2.10;;
41897;SDS011;27576;53.366;-1.498;2023-08-31T07:16:03;3.03;;;1.85;;
41897;SDS011;27576;53.366;-1.498;2023-08-31T07:18:29;2.80;;;1.98;;
41897;SDS011;27576;53.366;-1.498;2023-08-31T07:20:54;2.42;;;1.67;;
41897;SDS011;27576;53.366;-1.498;2023-08-31T07:23:20;1.75;;;1.60;;
41897;SDS011;27576;53.366;-1.498;2023-08-31T07:25:45;3.65;;;2.05;;
41897;SDS011;27576;53.366;-1.498;2023-08-31T07:28:10;5.13;;;1.90;;
41897;SDS011;27576;53.366;-1.498;2023-08-31T07:30:36;5.47;;;2.08;;
41897;SDS011;27576;53.366;-1.498;2023-08-31T07:33:02;3.42;;;2.10;;
41897;SDS011;27576;53.366;-1.498;2023-08-31T07:35:29;6.78;;;2.80;;
41897;SDS011;27576;53.366;-1.498;2023-08-31T07:37:54;5.07;;;2.55;;
41897;SDS011;27576;53.366;-1.498;2023-08-31T07:40:20;5.18;;;2.17;;
41897;SDS011;27576;53.366;-1.498;2023-08-31T07:42:45;4.38;;;2.35;;
41897;SDS011;27576;53.366;-1.498;2023-08-31T07:45:10;5.32;;;2.22;;
41897;SDS011;27576;53.366;-1.498;2023-08-31T07:47:36;3.80;;;2.30;;
41897;SDS011;27576;53.366;-1.498;2023-08-31T07:50:01;6.43;;;2.80;;
41897;SDS011;27576;53.366;-1.498;2023-08-31T07:52:27;4.55;;;2.38;;
41897;SDS011;27576;53.366;-1.498;2023-08-31T07:54:52;5.35;;;2.22;;
41897;SDS011;27576;53.366;-1.498;2023-08-31T07:57:18;5.13;;;2.85;;
41897;SDS011;27576;53.366;-1.498;2023-08-31T07:59:44;7.32;;;2.92;;
41897;SDS011;27576;53.366;-1.498;2023-08-31T08:02:09;6.15;;;2.40;;
41897;SDS011;27576;53.366;-1.498;2023-08-31T08:04:35;6.30;;;2.60;;
41897;SDS011;27576;53.366;-1.498;2023-08-31T08:07:00;6.13;;;2.70;;
41897;SDS011;27576;53.366;-1.498;2023-08-31T08:09:25;5.35;;;2.63;;
41897;SDS011;27576;53.366;-1.498;2023-08-31T08:11:51;4.07;;;2.63;;
41897;SDS011;27576;53.366;-1.498;2023-08-31T08:14:16;5.07;;;2.47;;
41897;SDS011;27576;53.366;-1.498;2023-08-31T08:16:42;3.80;;;2.58;;
41897;SDS011;27576;53.366;-1.498;2023-08-31T08:19:07;5.35;;;2.58;;
41897;SDS011;27576;53.366;-1.498;2023-08-31T08:21:33;4.60;;;2.38;;
41897;SDS011;27576;53.366;-1.498;2023-08-31T08:23:59;3.03;;;1.70;;
41897;SDS011;27576;53.366;-1.498;2023-08-31T08:26:24;4.38;;;1.50;;
41897;SDS011;27576;53.366;-1.498;2023-08-31T08:28:49;4.15;;;1.75;;
41897;SDS011;27576;53.366;-1.498;2023-08-31T08:31:15;2.55;;;1.60;;
41897;SDS011;27576;53.366;-1.498;2023-08-31T08:33:40;5.38;;;1.45;;
41897;SDS011;27576;53.366;-1.498;2023-08-31T08:36:06;4.93;;;1.90;;
41897;SDS011;27576;53.366;-1.498;2023-08-31T08:38:31;2.97;;;1.70;;
41897;SDS011;27576;53.366;-1.498;2023-08-31T08:40:56;2.53;;;1.90;;
41897;SDS011;27576;53.366;-1.498;2023-08-31T08:43:25;4.35;;;2.00;;
41897;SDS011;27576;53.366;-1.498;2023-08-31T08:45:52;5.10;;;2.10;;
41897;SDS011;27576;53.366;-1.498;2023-08-31T08:48:18;5.53;;;2.30;;
41897;SDS011;27576;53.366;-1.498;2023-08-31T08:50:45;3.45;;;1.67;;
41897;SDS011;27576;53.366;-1.498;2023-08-31T08:53:11;5.55;;;2.13;;
41897;SDS011;27576;53.366;-1.498;2023-08-31T08:55:38;3.42;;;1.58;;
41897;SDS011;27576;53.366;-1.498;2023-08-31T08:58:06;4.85;;;2.13;;
41897;SDS011;27576;53.366;-1.498;2023-08-31T09:00:32;6.78;;;2.65;;
41897;SDS011;27576;53.366;-1.498;2023-08-31T09:02:59;3.28;;;2.30;;
41897;SDS011;27576;53.366;-1.498;2023-08-31T09:05:26;4.50;;;2.30;;
41897;SDS011;27576;53.366;-1.498;2023-08-31T09:08:04;2.70;;;1.75;;
41897;SDS011;27576;53.366;-1.498;2023-08-31T09:10:35;5.40;;;1.80;;
41897;SDS011;27576;53.366;-1.498;2023-08-31T09:13:11;3.28;;;1.50;;
41897;SDS011;27576;53.366;-1.498;2023-08-31T09:15:39;4.07;;;1.70;;
41897;SDS011;27576;53.366;-1.498;2023-08-31T09:18:06;3.67;;;1.95;;
41897;SDS011;27576;53.366;-1.498;2023-08-31T09:20:35;6.10;;;2.15;;
41897;SDS011;27576;53.366;-1.498;2023-08-31T09:23:11;4.93;;;1.50;;
41897;SDS011;27576;53.366;-1.498;2023-08-31T09:25:40;5.88;;;2.22;;
41897;SDS011;27576;53.366;-1.498;2023-08-31T09:28:11;3.97;;;2.22;;
41897;SDS011;27576;53.366;-1.498;2023-08-31T09:30:37;5.47;;;1.77;;
41897;SDS011;27576;53.366;-1.498;2023-08-31T09:33:24;4.15;;;1.70;;
41897;SDS011;27576;53.366;-1.498;2023-08-31T09:35:52;3.70;;;1.52;;
41897;SDS011;27576;53.366;-1.498;2023-08-31T09:38:19;4.50;;;1.85;;
41897;SDS011;27576;53.366;-1.498;2023-08-31T09:40:44;4.22;;;1.60;;
41897;SDS011;27576;53.366;-1.498;2023-08-31T09:43:10;3.03;;;1.90;;
41897;SDS011;27576;53.366;-1.498;2023-08-31T09:45:35;11.00;;;2.25;;
41897;SDS011;27576;53.366;-1.498;2023-08-31T09:48:03;6.03;;;2.10;;
41897;SDS011;27576;53.366;-1.498;2023-08-31T09:50:30;3.13;;;1.98;;
41897;SDS011;27576;53.366;-1.498;2023-08-31T09:52:57;3.38;;;1.80;;
41897;SDS011;27576;53.366;-1.498;2023-08-31T09:55:26;4.38;;;2.00;;
41897;SDS011;27576;53.366;-1.498;2023-08-31T09:57:53;6.57;;;2.03;;
41897;SDS011;27576;53.366;-1.498;2023-08-31T10:00:22;6.57;;;1.98;;
41897;SDS011;27576;53.366;-1.498;2023-08-31T10:02:47;5.10;;;1.77;;
41897;SDS011;27576;53.366;-1.498;2023-08-31T10:05:14;4.55;;;1.90;;
41897;SDS011;27576;53.366;-1.498;2023-08-31T10:07:41;5.88;;;1.85;;
41897;SDS011;27576;53.366;-1.498;2023-08-31T10:10:08;4.32;;;1.70;;
41897;SDS011;27576;53.366;-1.498;2023-08-31T10:12:35;4.60;;;1.65;;
41897;SDS011;27576;53.366;-1.498;2023-08-31T10:15:01;1.77;;;1.27;;
41897;SDS011;27576;53.366;-1.498;2023-08-31T10:17:28;5.55;;;1.88;;
41897;SDS011;27576;53.366;-1.498;2023-08-31T10:19:54;2.65;;;1.30;;
41897;SDS011;27576;53.366;-1.498;2023-08-31T10:22:20;2.10;;;1.20;;
41897;SDS011;27576;53.366;-1.498;2023-08-31T10:24:58;1.70;;;1.17;;
41897;SDS011;27576;53.366;-1.498;2023-08-31T10:27:29;2.10;;;1.10;;
41897;SDS011;27576;53.366;-1.498;2023-08-31T10:31:00;3.08;;;1.48;;
41897;SDS011;27576;53.366;-1.498;2023-08-31T10:36:08;2.58;;;0.90;;
41897;SDS011;27576;53.366;-1.498;2023-08-31T10:38:30;2.60;;;1.23;;
41897;SDS011;27576;53.366;-1.498;2023-08-31T10:41:00;1.67;;;1.10;;
41897;SDS011;27576;53.366;-1.498;2023-08-31T10:43:28;2.08;;;1.20;;
41897;SDS011;27576;53.366;-1.498;2023-08-31T10:46:17;2.85;;;1.05;;
41897;SDS011;27576;53.366;-1.498;2023-08-31T10:51:32;3.05;;;1.58;;
41897;SDS011;27576;53.366;-1.498;2023-08-31T10:54:08;2.85;;;1.25;;
41897;SDS011;27576;53.366;-1.498;2023-08-31T10:59:24;4.25;;;1.77;;
41897;SDS011;27576;53.366;-1.498;2023-08-31T11:01:56;5.65;;;1.70;;
41897;SDS011;27576;53.366;-1.498;2023-08-31T11:04:26;2.22;;;1.00;;
41897;SDS011;27576;53.366;-1.498;2023-08-31T11:09:37;4.18;;;1.75;;
41897;SDS011;27576;53.366;-1.498;2023-08-31T11:12:03;4.30;;;1.65;;
41897;SDS011;27576;53.366;-1.498;2023-08-31T11:14:28;4.78;;;1.65;;
41897;SDS011;27576;53.366;-1.498;2023-08-31T11:16:53;6.57;;;1.90;;
41897;SDS011;27576;53.366;-1.498;2023-08-31T11:19:19;3.75;;;1.70;;
41897;SDS011;27576;53.366;-1.498;2023-08-31T11:21:45;1.85;;;1.17;;
41897;SDS011;27576;53.366;-1.498;2023-08-31T11:24:10;2.45;;;1.10;;
41897;SDS011;27576;53.366;-1.498;2023-08-31T11:26:36;2.78;;;1.23;;
41897;SDS011;27576;53.366;-1.498;2023-08-31T11:29:01;2.60;;;1.42;;
41897;SDS011;27576;53.366;-1.498;2023-08-31T11:31:31;2.85;;;1.38;;
41897;SDS011;27576;53.366;-1.498;2023-08-31T11:33:56;2.65;;;1.23;;
41897;SDS011;27576;53.366;-1.498;2023-08-31T11:36:21;4.85;;;1.58;;
41897;SDS011;27576;53.366;-1.498;2023-08-31T11:38:48;2.80;;;1.27;;
41897;SDS011;27576;53.366;-1.498;2023-08-31T11:41:13;3.70;;;1.38;;
41897;SDS011;27576;53.366;-1.498;2023-08-31T11:43:39;1.52;;;0.93;;
41897;SDS011;27576;53.366;-1.498;2023-08-31T11:46:05;3.05;;;1.30;;
41897;SDS011;27576;53.366;-1.498;2023-08-31T11:48:31;4.10;;;1.40;;
41897;SDS011;27576;53.366;-1.498;2023-08-31T11:50:57;3.97;;;1.80;;
41897;SDS011;27576;53.366;-1.498;2023-08-31T11:53:23;5.15;;;1.58;;
41897;SDS011;27576;53.366;-1.498;2023-08-31T11:55:50;2.47;;;1.50;;
41897;SDS011;27576;53.366;-1.498;2023-08-31T11:58:16;2.55;;;1.40;;
41897;SDS011;27576;53.366;-1.498;2023-08-31T12:00:45;2.38;;;1.17;;
41897;SDS011;27576;53.366;-1.498;2023-08-31T12:03:19;4.43;;;1.73;;
41897;SDS011;27576;53.366;-1.498;2023-08-31T12:05:48;8.30;;;3.78;;
41897;SDS011;27576;53.366;-1.498;2023-08-31T12:08:23;3.20;;;1.60;;
41897;SDS011;27576;53.366;-1.498;2023-08-31T12:10:49;5.75;;;1.73;;
41897;SDS011;27576;53.366;-1.498;2023-08-31T12:13:15;4.05;;;1.85;;
41897;SDS011;27576;53.366;-1.498;2023-08-31T12:15:40;4.20;;;1.77;;
41897;SDS011;27576;53.366;-1.498;2023-08-31T12:18:06;5.28;;;1.50;;
41897;SDS011;27576;53.366;-1.498;2023-08-31T12:20:42;2.13;;;1.02;;
41897;SDS011;27576;53.366;-1.498;2023-08-31T12:23:08;2.60;;;1.10;;
41897;SDS011;27576;53.366;-1.498;2023-08-31T12:25:35;4.63;;;1.60;;
41897;SDS011;27576;53.366;-1.498;2023-08-31T12:28:00;1.73;;;1.23;;
41897;SDS011;27576;53.366;-1.498;2023-08-31T12:30:26;3.90;;;1.25;;
41897;SDS011;27576;53.366;-1.498;2023-08-31T12:32:52;3.90;;;1.17;;
41897;SDS011;27576;53.366;-1.498;2023-08-31T12:35:17;2.28;;;1.30;;
41897;SDS011;27576;53.366;-1.498;2023-08-31T12:37:43;2.05;;;1.08;;
41897;SDS011;27576;53.366;-1.498;2023-08-31T12:40:08;2.50;;;1.30;;
41897;SDS011;27576;53.366;-1.498;2023-08-31T12:42:35;3.70;;;1.20;;
41897;SDS011;27576;53.366;-1.498;2023-08-31T12:45:00;3.55;;;1.23;;
41897;SDS011;27576;53.366;-1.498;2023-08-31T12:47:26;3.42;;;1.35;;
41897;SDS011;27576;53.366;-1.498;2023-08-31T12:49:51;1.92;;;1.02;;
41897;SDS011;27576;53.366;-1.498;2023-08-31T12:52:16;4.35;;;1.80;;
41897;SDS011;27576;53.366;-1.498;2023-08-31T12:54:42;3.03;;;1.33;;
41897;SDS011;27576;53.366;-1.498;2023-08-31T12:57:07;2.67;;;1.27;;
41897;SDS011;27576;53.366;-1.498;2023-08-31T12:59:32;2.88;;;1.10;;
41897;SDS011;27576;53.366;-1.498;2023-08-31T13:01:58;2.60;;;1.80;;
41897;SDS011;27576;53.366;-1.498;2023-08-31T13:04:23;2.53;;;1.10;;
41897;SDS011;27576;53.366;-1.498;2023-08-31T13:06:48;3.80;;;1.20;;
41897;SDS011;27576;53.366;-1.498;2023-08-31T13:09:14;5.95;;;1.20;;
41897;SDS011;27576;53.366;-1.498;2023-08-31T13:11:39;4.05;;;1.10;;
41897;SDS011;27576;53.366;-1.498;2023-08-31T13:14:05;1.88;;;1.02;;
41897;SDS011;27576;53.366;-1.498;2023-08-31T13:16:31;3.65;;;1.30;;
41897;SDS011;27576;53.366;-1.498;2023-08-31T13:18:57;7.35;;;1.70;;
41897;SDS011;27576;53.366;-1.498;2023-08-31T13:21:22;2.53;;;1.10;;
41897;SDS011;27576;53.366;-1.498;2023-08-31T13:23:48;5.22;;;1.50;;
41897;SDS011;27576;53.366;-1.498;2023-08-31T13:26:13;2.65;;;1.00;;
41897;SDS011;27576;53.366;-1.498;2023-08-31T13:28:39;2.25;;;1.00;;
41897;SDS011;27576;53.366;-1.498;2023-08-31T13:31:06;5.10;;;1.38;;
41897;SDS011;27576;53.366;-1.498;2023-08-31T13:33:31;2.60;;;1.42;;
41897;SDS011;27576;53.366;-1.498;2023-08-31T13:35:57;2.05;;;1.05;;
41897;SDS011;27576;53.366;-1.498;2023-08-31T13:38:26;1.52;;;1.15;;
41897;SDS011;27576;53.366;-1.498;2023-08-31T13:40:57;3.40;;;1.25;;
41897;SDS011;27576;53.366;-1.498;2023-08-31T13:43:23;2.55;;;1.40;;
41897;SDS011;27576;53.366;-1.498;2023-08-31T13:45:49;3.47;;;1.23;;
41897;SDS011;27576;53.366;-1.498;2023-08-31T13:48:14;3.83;;;1.70;;
41897;SDS011;27576;53.366;-1.498;2023-08-31T13:50:39;3.47;;;1.50;;
41897;SDS011;27576;53.366;-1.498;2023-08-31T13:53:05;3.67;;;1.73;;
41897;SDS011;27576;53.366;-1.498;2023-08-31T13:55:30;3.50;;;1.77;;
41897;SDS011;27576;53.366;-1.498;2023-08-31T13:57:57;5.20;;;1.70;;
41897;SDS011;27576;53.366;-1.498;2023-08-31T14:00:29;3.63;;;1.83;;
41897;SDS011;27576;53.366;-1.498;2023-08-31T14:02:55;4.75;;;1.80;;
41897;SDS011;27576;53.366;-1.498;2023-08-31T14:05:23;3.25;;;1.52;;
41897;SDS011;27576;53.366;-1.498;2023-08-31T14:07:48;4.22;;;1.80;;
41897;SDS011;27576;53.366;-1.498;2023-08-31T14:10:14;5.38;;;1.73;;
41897;SDS011;27576;53.366;-1.498;2023-08-31T14:12:39;4.68;;;1.40;;
41897;SDS011;27576;53.366;-1.498;2023-08-31T14:15:04;3.95;;;2.58;;
41897;SDS011;27576;53.366;-1.498;2023-08-31T14:17:31;7.75;;;2.20;;
41897;SDS011;27576;53.366;-1.498;2023-08-31T14:19:58;4.20;;;1.90;;
41897;SDS011;27576;53.366;-1.498;2023-08-31T14:22:24;5.57;;;1.70;;
41897;SDS011;27576;53.366;-1.498;2023-08-31T14:24:50;4.45;;;1.90;;
41897;SDS011;27576;53.366;-1.498;2023-08-31T14:27:15;7.00;;;1.90;;
41897;SDS011;27576;53.366;-1.498;2023-08-31T14:29:41;4.13;;;1.73;;
41897;SDS011;27576;53.366;-1.498;2023-08-31T14:32:06;4.18;;;1.75;;
41897;SDS011;27576;53.366;-1.498;2023-08-31T14:34:32;4.70;;;2.00;;
41897;SDS011;27576;53.366;-1.498;2023-08-31T14:36:57;7.28;;;1.90;;
41897;SDS011;27576;53.366;-1.498;2023-08-31T14:39:24;4.75;;;1.40;;
41897;SDS011;27576;53.366;-1.498;2023-08-31T14:41:54;2.83;;;1.55;;
41897;SDS011;27576;53.366;-1.498;2023-08-31T14:44:20;6.20;;;1.75;;
41897;SDS011;27576;53.366;-1.498;2023-08-31T14:46:45;6.95;;;2.03;;
41897;SDS011;27576;53.366;-1.498;2023-08-31T14:49:10;5.70;;;1.65;;